Главная страница
METAR-TAF:

METAR-TAF

Аэропорты :

Бермудские острова, Бермуды

широта: 32-22N, долгота: 064-41W, высота над уровнем моря: 6 м

Текущие метеонаблюдения

Эта сводка был подготовлена 11 минут назад, в 12:55 UTC
Ветер 10 Узел от северо-северо-восточный, изменяющийся между северный и северо-восточный
Температура 20°C
Влажность 60%
Давление 1027 hPa
Видимость 10 км и более
небольшая облачность на высоте 3400 фута
небольшая облачность на высоте 7400 фута
Рассеянная облачность на высоте 30000 фута

METAR: TXKF 231255Z 02010KT 350V050 9999 FEW034 FEW074 BKN300 20/12 Q1027

Время: 10:06 (13:06 UTC)

Прогноз

Эта сводка был подготовлена 1 час и 31 минут назад, в 11:35 UTC
Прогноз действительный с 23-го 12 UTC до 24-го 12 UTC
Ветер 12 Узел от северо-восточный
Видимость 10 км и более
небольшая облачность на высоте 3000 фута
Отдельные облака на высоте 7500 фута
Рассеянная облачность на высоте 30000 фута

TAF: TXKF 231135Z 2312/2412 05012KT 9999 FEW030 SCT075 BKN300

Метеонаблюдения и прогнозы для более 4000 аэропортов (сводки METAR и TAF).

Имеющиеся станции представлены на карте желтыми и красными точками.

Чтобы увидеть название станции, наведите на нее мышь.

Затем щелкните, чтобы увидеть метеонаблюдения и метеопрогнозы.

Управление картой: чтобы увеличить масштаб, щелкните зеленые кнопки с черным крестиком; чтобы уменьшить масштаб, щелкните зеленую кнопку с тире; для просмотра соседних карт щелкайте зеленые стрелки.


METAR-TAF: